Time;durP1;ratioP1;P1;durP2;ratioP2;P2;SDS_P1;SDS_P2;PMS_P1;PMS_P2;Temp;Humidity;BMP_temperature;BMP_pressure;BME280_temperature;BME280_humidity;BME280_pressure;Samples;Min_cycle;Max_cycle;Signal;HPM_P1;HPM_P2
2020/12/19 00:02:06;;;;;;;2.72;2.42;;;9.20;94.10;;;;;;4935360;29;20047;-79
2020/12/19 00:04:32;;;;;;;2.60;2.20;;;;;;;;;;4919533;29;20426;-81
2020/12/19 00:06:58;;;;;;;2.00;1.90;;;8.90;92.50;;;;;;4952557;29;20047;-81
2020/12/19 00:09:24;;;;;;;3.70;2.15;;;9.10;80.00;;;;;;4918219;28;20073;-81
2020/12/19 00:11:51;;;;;;;4.63;2.20;;;;;;;;;;4919191;29;20097;-80
2020/12/19 00:14:20;;;;;;;2.30;2.10;;;9.20;99.30;;;;;;4934929;29;20036;-79
2020/12/19 00:16:46;;;;;;;3.97;2.35;;;9.10;79.60;;;;;;4919864;29;20035;-80
2020/12/19 00:19:12;;;;;;;3.88;2.40;;;;;;;;;;4919322;29;20090;-79
2020/12/19 00:21:38;;;;;;;2.88;2.60;;;9.30;94.00;;;;;;4951978;28;20478;-81
2020/12/19 00:24:04;;;;;;;4.72;3.17;;;9.00;84.70;;;;;;4918914;29;20035;-81
2020/12/19 00:26:40;;;;;;;3.17;2.67;;;8.90;92.60;;;;;;4934928;29;20031;-79
2020/12/19 00:29:06;;;;;;;3.22;2.38;;;9.30;94.50;;;;;;4934636;29;20046;-79
2020/12/19 00:31:32;;;;;;;4.15;2.47;;;9.00;81.60;;;;;;4918861;29;20426;-79
2020/12/19 00:33:58;;;;;;;3.20;2.90;;;;;;;;;;4927092;29;20115;-79
2020/12/19 00:36:23;;;;;;;2.70;2.45;;;9.10;93.20;;;;;;4934367;29;20149;-79
2020/12/19 00:38:49;;;;;;;1.75;1.65;;;9.00;81.70;;;;;;4951964;29;20130;-80
2020/12/19 00:41:18;;;;;;;2.28;2.08;;;;;;;;;;4918732;29;20434;-81
2020/12/19 00:43:44;;;;;;;2.25;2.05;;;9.40;92.70;;;;;;4918842;29;20019;-79
2020/12/19 00:46:13;;;;;;;3.13;2.10;;;9.20;80.10;;;;;;4918680;29;20090;-79
2020/12/19 00:48:40;;;;;;;2.47;2.08;;;9.30;91.00;;;;;;4918920;29;20097;-80
2020/12/19 00:51:11;;;;;;;2.45;2.10;;;9.30;92.90;;;;;;4918700;28;20035;-79
2020/12/19 00:53:37;;;;;;;2.83;2.50;;;9.30;93.30;;;;;;4918334;29;20058;-80
2020/12/19 00:56:03;;;;;;;2.33;2.13;;;;;;;;;;4902845;29;20067;-79
2020/12/19 00:58:29;;;;;;;4.60;2.60;;;9.00;99.40;;;;;;4934140;29;20533;-79
2020/12/19 01:00:54;;;;;;;3.15;2.85;;;8.90;94.20;;;;;;4934401;29;20118;-79
2020/12/19 01:03:20;;;;;;;2.42;2.22;;;9.00;92.40;;;;;;4918270;28;20054;-79
2020/12/19 01:05:46;;;;;;;4.55;2.70;;;;;;;;;;4934379;29;20039;-79
2020/12/19 01:08:11;;;;;;;4.40;2.33;;;8.80;93.80;;;;;;4934182;29;20469;-79
2020/12/19 01:10:37;;;;;;;6.60;2.70;;;8.70;82.50;;;;;;4951240;29;20039;-79
2020/12/19 01:13:02;;;;;;;3.03;2.40;;;8.80;81.20;;;;;;4934031;29;20074;-80
2020/12/19 01:15:28;;;;;;;2.60;2.40;;;8.40;99.90;;;;;;4933928;29;20094;-79
2020/12/19 01:17:53;;;;;;;5.50;2.72;;;8.40;81.50;;;;;;4934081;29;20035;-78
2020/12/19 01:20:19;;;;;;;4.15;2.33;;;8.90;82.80;;;;;;4934170;29;20030;-79
2020/12/19 01:22:45;;;;;;;4.85;2.65;;;8.70;99.90;;;;;;4933878;29;20027;-81
2020/12/19 01:25:11;;;;;;;3.00;2.55;;;;;;;;;;4933876;29;20027;-80
2020/12/19 01:27:37;;;;;;;3.22;2.50;;;8.90;80.40;;;;;;4933973;29;20031;-79
2020/12/19 01:30:03;;;;;;;3.55;2.90;;;;;;;;;;4902635;29;20390;-79
2020/12/19 01:32:29;;;;;;;2.75;2.40;;;9.10;93.80;;;;;;4920782;29;20366;-81
2020/12/19 01:34:54;;;;;;;4.13;2.80;;;8.80;82.30;;;;;;4902472;29;20031;-80
2020/12/19 01:37:20;;;;;;;2.95;2.42;;;;;;;;;;4933877;29;20031;-81
2020/12/19 01:39:46;;;;;;;2.42;2.13;;;8.70;93.70;;;;;;4933613;29;20110;-79
2020/12/19 01:42:12;;;;;;;3.40;2.55;;;8.90;93.60;;;;;;4950796;29;20035;-80
2020/12/19 01:44:37;;;;;;;3.20;2.30;;;9.20;94.30;;;;;;4933805;29;20032;-79
2020/12/19 01:47:03;;;;;;;3.75;2.50;;;9.10;94.30;;;;;;4933612;28;20043;-79
2020/12/19 01:49:30;;;;;;;3.03;2.33;;;9.10;80.10;;;;;;4934065;29;20550;-79
2020/12/19 01:52:04;;;;;;;3.53;2.28;;;9.10;94.00;;;;;;4918044;29;20030;-79
2020/12/19 01:54:30;;;;;;;3.35;2.50;;;;;;;;;;4918729;29;20054;-80
2020/12/19 01:56:57;;;;;;;2.90;2.60;;;9.10;94.20;;;;;;4933552;29;20030;-80
2020/12/19 01:59:23;;;;;;;2.95;2.60;;;9.50;81.80;;;;;;4917382;29;20064;-79
2020/12/19 02:01:52;;;;;;;3.53;2.55;;;8.90;81.60;;;;;;4933498;29;20497;-81
2020/12/19 02:04:19;;;;;;;6.28;2.25;;;;;;;;;;4933820;29;20059;-79
2020/12/19 02:06:50;;;;;;;2.72;2.53;;;9.10;97.60;;;;;;4921160;29;20031;-79
2020/12/19 02:09:17;;;;;;;3.28;2.22;;;8.90;80.80;;;;;;4937705;29;20466;-79
2020/12/19 02:11:43;;;;;;;2.83;2.45;;;;;;;;;;4921678;29;20432;-81
2020/12/19 02:14:09;;;;;;;3.47;2.58;;;9.20;95.50;;;;;;4937316;29;20483;-79
2020/12/19 02:16:35;;;;;;;3.58;2.70;;;9.10;80.50;;;;;;4905801;29;20067;-79
2020/12/19 02:19:01;;;;;;;4.85;2.50;;;9.10;81.30;;;;;;4954331;29;20486;-79
2020/12/19 02:21:27;;;;;;;2.60;2.30;;;;;;;;;;4936781;29;20038;-79
2020/12/19 02:23:53;;;;;;;3.47;2.38;;;9.00;99.90;;;;;;4936556;29;20027;-79
2020/12/19 02:26:19;;;;;;;7.13;3.83;;;9.00;82.10;;;;;;4921031;29;20035;-79
2020/12/19 02:28:45;;;;;;;2.83;2.30;;;;;;;;;;4936719;29;20414;-79
2020/12/19 02:31:10;;;;;;;3.92;2.33;;;9.50;93.80;;;;;;4954021;29;20027;-79
2020/12/19 02:33:36;;;;;;;2.58;2.38;;;8.90;82.50;;;;;;4937014;29;20031;-80
2020/12/19 02:36:01;;;;;;;3.03;2.20;;;8.90;99.90;;;;;;4937066;29;20074;-79
2020/12/19 02:38:27;;;;;;;3.30;2.50;;;8.90;99.90;;;;;;4936720;29;20035;-80
2020/12/19 02:40:52;;;;;;;2.65;2.25;;;8.60;95.00;;;;;;4936975;29;20024;-78
2020/12/19 02:43:18;;;;;;;2.42;2.22;;;8.50;99.90;;;;;;4936876;29;20454;-80
2020/12/19 02:45:44;;;;;;;4.25;2.63;;;8.70;94.50;;;;;;4954209;29;20081;-79
2020/12/19 02:48:09;;;;;;;5.18;2.50;;;9.00;95.00;;;;;;4921094;29;20478;-79
2020/12/19 02:50:35;;;;;;;2.67;2.20;;;;;;;;;;4921022;29;20189;-79
2020/12/19 02:53:01;;;;;;;3.72;2.40;;;8.60;94.40;;;;;;4952193;28;20046;-79
2020/12/19 02:55:26;;;;;;;2.22;2.03;;;8.70;94.70;;;;;;4936646;29;20031;-79
2020/12/19 02:57:52;;;;;;;2.38;2.17;;;;;;;;;;4953637;29;20408;-79
2020/12/19 03:00:18;;;;;;;3.15;2.30;;;8.50;99.90;;;;;;4954111;29;20032;-79
2020/12/19 03:02:43;;;;;;;2.65;2.10;;;8.60;95.40;;;;;;4920651;29;20037;-79
2020/12/19 03:05:09;;;;;;;2.67;2.40;;;;;;;;;;4936490;29;20517;-80
2020/12/19 03:07:35;;;;;;;3.08;2.40;;;8.40;95.30;;;;;;4936377;29;20046;-79
2020/12/19 03:10:01;;;;;;;4.25;2.47;;;8.50;95.20;;;;;;4936171;29;20117;-79
2020/12/19 03:12:26;;;;;;;2.97;2.10;;;8.80;99.90;;;;;;4953394;29;20023;-80
2020/12/19 03:14:52;;;;;;;6.30;2.50;;;8.50;95.60;;;;;;4953312;29;20023;-79
2020/12/19 03:17:17;;;;;;;2.63;2.40;;;8.40;95.90;;;;;;4919852;29;20086;-79
2020/12/19 03:19:43;;;;;;;3.50;2.35;;;8.20;99.90;;;;;;4936001;29;20031;-79
2020/12/19 03:22:08;;;;;;;2.47;2.28;;;8.30;95.40;;;;;;4920591;29;20529;-80
2020/12/19 03:24:34;;;;;;;2.60;2.28;;;8.40;96.10;;;;;;4935900;29;20039;-79
2020/12/19 03:27:00;;;;;;;2.30;2.10;;;8.00;95.90;;;;;;4935789;29;20039;-79
2020/12/19 03:29:26;;;;;;;3.15;1.98;;;;;;;;;;4936097;28;20039;-80
2020/12/19 03:31:52;;;;;;;2.55;2.33;;;;;;;;;;4953245;29;20031;-80
2020/12/19 03:34:17;;;;;;;3.95;2.20;;;;;;;;;;4953023;29;20078;-79
2020/12/19 03:36:44;;;;;;;2.85;2.10;;;;;;;;;;4952959;29;20029;-78
2020/12/19 03:39:09;;;;;;;2.63;2.17;;;7.80;96.10;;;;;;4953089;29;20122;-78
2020/12/19 03:41:35;;;;;;;5.88;2.40;;;7.80;96.40;;;;;;4919795;28;20142;-79
2020/12/19 03:44:06;;;;;;;3.15;2.45;;;7.70;92.50;;;;;;4953703;29;20031;-79
2020/12/19 03:46:32;;;;;;;2.75;2.33;;;7.70;94.80;;;;;;4924011;29;20032;-80
2020/12/19 03:48:58;;;;;;;6.18;2.30;;;7.90;95.10;;;;;;4939164;29;20079;-78
2020/12/19 03:51:23;;;;;;;2.55;2.03;;;8.10;94.80;;;;;;4938943;29;20038;-79
2020/12/19 03:53:49;;;;;;;2.40;2.20;;;;;;;;;;4923370;29;20027;-79
2020/12/19 03:56:15;;;;;;;2.58;2.20;;;7.70;95.30;;;;;;4939256;29;20069;-79
2020/12/19 03:58:41;;;;;;;2.55;2.17;;;7.70;95.80;;;;;;4938579;29;20141;-81
2020/12/19 04:01:07;;;;;;;3.80;2.22;;;;;;;;;;4923510;29;20028;-79
2020/12/19 04:03:33;;;;;;;2.83;2.30;;;7.20;96.20;;;;;;4956272;29;20027;-79
2020/12/19 04:05:58;;;;;;;4.70;2.20;;;7.30;96.40;;;;;;4955889;28;20031;-81
2020/12/19 04:08:24;;;;;;;2.55;2.30;;;7.00;99.90;;;;;;4938672;29;20122;-79
2020/12/19 04:10:49;;;;;;;3.10;2.22;;;6.80;99.90;;;;;;4922933;29;20541;-79
2020/12/19 04:13:15;;;;;;;2.70;2.45;;;7.20;96.00;;;;;;4938843;29;20035;-79
2020/12/19 04:15:41;;;;;;;2.83;2.38;;;;;;;;;;4955951;29;20119;-79
2020/12/19 04:18:10;;;;;;;2.17;1.98;;;;;;;;;;4955768;29;20512;-79
2020/12/19 04:20:35;;;;;;;3.00;2.70;;;7.30;95.60;;;;;;4938722;29;20023;-79
2020/12/19 04:23:01;;;;;;;7.00;2.45;;;;;;;;;;4922960;29;20031;-80
2020/12/19 04:25:27;;;;;;;2.75;2.20;;;7.00;96.00;;;;;;4938590;29;20024;-79
2020/12/19 04:27:52;;;;;;;3.33;2.40;;;7.30;96.00;;;;;;4921998;29;20035;-79
2020/12/19 04:30:18;;;;;;;2.72;2.30;;;6.80;99.90;;;;;;4922504;29;20035;-79
2020/12/19 04:32:44;;;;;;;4.25;2.10;;;6.90;99.90;;;;;;4938850;29;20114;-79
2020/12/19 04:35:09;;;;;;;2.60;2.38;;;7.00;91.90;;;;;;4938542;29;20023;-79
2020/12/19 04:37:35;;;;;;;2.90;1.92;;;6.80;85.70;;;;;;4922457;29;20057;-79
2020/12/19 04:40:01;;;;;;;3.03;2.70;;;;;;;;;;4922319;29;20537;-79
2020/12/19 04:42:26;;;;;;;3.10;2.00;;;6.80;99.90;;;;;;4922577;29;20514;-79
2020/12/19 04:44:52;;;;;;;2.75;2.20;;;7.00;95.90;;;;;;4938085;29;20077;-79
2020/12/19 04:47:18;;;;;;;4.10;2.30;;;6.90;99.90;;;;;;4922511;29;20023;-79
2020/12/19 04:49:44;;;;;;;3.38;2.33;;;6.90;94.00;;;;;;4922234;29;20502;-80
2020/12/19 04:52:09;;;;;;;2.72;2.30;;;7.20;95.20;;;;;;4937944;29;20035;-81
2020/12/19 04:54:36;;;;;;;2.90;2.60;;;;;;;;;;4922028;29;20078;-79
2020/12/19 04:57:02;;;;;;;3.55;2.53;;;6.70;99.90;;;;;;4938171;29;20461;-79
2020/12/19 04:59:27;;;;;;;3.08;2.50;;;6.90;94.90;;;;;;4922068;29;20055;-80
2020/12/19 05:01:53;;;;;;;2.78;2.15;;;7.00;94.70;;;;;;4937840;29;20023;-79
2020/12/19 05:04:19;;;;;;;4.82;2.30;;;;;;;;;;4937811;29;20035;-79
2020/12/19 05:06:45;;;;;;;2.60;2.40;;;6.80;94.70;;;;;;4954846;29;20026;-79
2020/12/19 05:09:11;;;;;;;4.28;2.50;;;7.00;93.80;;;;;;4922188;29;20047;-78
2020/12/19 05:11:37;;;;;;;2.10;1.90;;;;;;;;;;4937645;29;20026;-79
2020/12/19 05:14:06;;;;;;;3.42;2.20;;;6.90;99.90;;;;;;4954904;29;20019;-79
2020/12/19 05:16:31;;;;;;;3.22;2.13;;;7.00;93.90;;;;;;4937518;29;20489;-79
2020/12/19 05:18:57;;;;;;;2.45;2.20;;;;;;;;;;4921741;29;20046;-79
2020/12/19 05:21:24;;;;;;;2.70;2.20;;;6.70;93.50;;;;;;4937556;29;20024;-79
2020/12/19 05:23:50;;;;;;;2.72;2.20;;;6.80;94.00;;;;;;4921986;29;20046;-79
2020/12/19 05:26:16;;;;;;;3.65;1.95;;;7.10;93.90;;;;;;4937654;29;20750;-79
2020/12/19 05:28:42;;;;;;;2.58;2.38;;;;;;;;;;4937702;29;20477;-79
2020/12/19 05:31:09;;;;;;;3.78;2.45;;;7.10;99.90;;;;;;4937467;29;20469;-79
2020/12/19 05:33:44;;;;;;;2.95;2.47;;;6.70;83.80;;;;;;4922064;29;20385;-80
2020/12/19 05:36:20;;;;;;;2.90;2.70;;;6.20;99.90;;;;;;4923187;28;20031;-79
2020/12/19 05:38:46;;;;;;;3.55;2.42;;;6.10;99.90;;;;;;4937234;28;20045;-79
2020/12/19 05:41:12;;;;;;;5.03;2.45;;;6.00;85.80;;;;;;4937541;29;20027;-81
2020/12/19 05:43:50;;;;;;;2.85;2.53;;;6.70;85.60;;;;;;4937376;29;20395;-79
2020/12/19 05:46:29;;;;;;;4.63;4.10;;;5.80;95.60;;;;;;4921774;29;20059;-79
2020/12/19 05:48:56;;;;;;;5.30;3.47;;;6.10;99.90;;;;;;4922118;29;20027;-79
2020/12/19 05:51:22;;;;;;;3.20;2.83;;;5.70;96.50;;;;;;4921783;29;20465;-79
2020/12/19 05:53:50;;;;;;;3.70;3.05;;;5.90;94.20;;;;;;4921682;29;20055;-79
2020/12/19 05:56:16;;;;;;;12.85;10.27;;;;;;;;;;4937805;29;20027;-79
2020/12/19 05:58:43;;;;;;;6.32;5.22;;;6.40;99.90;;;;;;4937122;29;20059;-81
2020/12/19 06:01:09;;;;;;;4.13;3.47;;;6.20;84.80;;;;;;4921736;29;20027;-79
2020/12/19 06:03:35;;;;;;;7.63;4.88;;;;;;;;;;4905787;28;20074;-78
2020/12/19 06:06:01;;;;;;;12.27;7.20;;;6.40;99.90;;;;;;4937420;29;20078;-82
2020/12/19 06:08:26;;;;;;;9.57;5.85;;;6.40;83.20;;;;;;4921559;29;20417;-79
2020/12/19 06:10:55;;;;;;;18.70;8.95;;;6.40;84.10;;;;;;4905594;29;20035;-79
2020/12/19 06:13:20;;;;;;;8.20;6.05;;;6.10;95.10;;;;;;4921621;29;20031;-80
2020/12/19 06:15:55;;;;;;;4.25;2.83;;;6.20;85.30;;;;;;4905711;28;20031;-78
2020/12/19 06:18:35;;;;;;;9.23;6.00;;;6.30;99.90;;;;;;4954479;29;20035;-82
2020/12/19 06:21:06;;;;;;;4.20;3.10;;;6.00;81.60;;;;;;4937451;29;20493;-82
2020/12/19 06:23:35;;;;;;;6.30;3.75;;;;;;;;;;4921677;29;20127;-80
2020/12/19 06:26:01;;;;;;;11.27;6.15;;;5.60;99.90;;;;;;4937217;29;20090;-79
2020/12/19 06:28:42;;;;;;;4.70;3.50;;;5.30;96.10;;;;;;4922068;28;20035;-78
2020/12/19 06:31:21;;;;;;;13.73;8.32;;;5.50;99.90;;;;;;4954440;29;20463;-79
2020/12/19 06:33:50;;;;;;;21.63;12.82;;;5.50;88.50;;;;;;4921498;29;20454;-80
2020/12/19 06:36:26;;;;;;;10.38;5.95;;;5.80;99.90;;;;;;4937137;29;20455;-79
2020/12/19 06:39:06;;;;;;;10.25;6.35;;;5.20;99.90;;;;;;4905878;29;20036;-80
2020/12/19 06:41:58;;;;;;;11.65;6.57;;;5.60;95.00;;;;;;4936868;29;20027;-79
2020/12/19 06:44:30;;;;;;;21.65;14.82;;;6.00;99.90;;;;;;4953574;28;20123;-81
2020/12/19 06:46:57;;;;;;;4.10;3.60;;;6.00;95.00;;;;;;4936942;29;20075;-80
2020/12/19 06:49:23;;;;;;;7.07;5.38;;;6.10;95.20;;;;;;4920329;29;20038;-84
2020/12/19 06:52:08;;;;;;;6.22;5.53;;;6.20;83.80;;;;;;4938331;29;20027;-79
2020/12/19 06:54:44;;;;;;;2.60;2.40;;;6.00;99.90;;;;;;4924739;29;20506;-84
2020/12/19 06:57:30;;;;;;;5.53;4.45;;;5.50;99.90;;;;;;4909218;29;20079;-83
2020/12/19 06:59:56;;;;;;;7.28;3.78;;;;;;;;;;4909225;29;20149;-81
2020/12/19 07:02:22;;;;;;;4.68;3.28;;;5.60;92.40;;;;;;4940443;29;20150;-81
2020/12/19 07:04:48;;;;;;;4.38;3.70;;;5.60;84.10;;;;;;4939786;29;20078;-81
2020/12/19 07:07:15;;;;;;;3.85;3.33;;;5.70;93.90;;;;;;4908532;29;20624;-85
2020/12/19 07:09:41;;;;;;;4.65;3.95;;;6.80;94.60;;;;;;4908778;29;20371;-81
2020/12/19 07:12:30;;;;;;;3.22;2.92;;;5.50;94.00;;;;;;4924210;29;20034;-86
2020/12/19 07:14:56;;;;;;;7.78;3.80;;;;;;;;;;4940180;29;20114;-86
2020/12/19 07:17:22;;;;;;;3.28;2.83;;;;;;;;;;4924348;29;20024;-85
2020/12/19 07:20:00;;;;;;;7.80;5.30;;;5.10;95.70;;;;;;4924668;29;20110;-85
2020/12/19 07:22:27;;;;;;;4.20;3.47;;;5.40;94.90;;;;;;4925361;29;20042;-85
2020/12/19 07:24:53;;;;;;;5.60;4.45;;;5.00;96.00;;;;;;4906887;29;20410;-82
2020/12/19 07:27:20;;;;;;;5.38;4.68;;;5.20;86.50;;;;;;4940710;29;20516;-88
2020/12/19 07:29:46;;;;;;;5.63;4.00;;;;;;;;;;4908682;29;20386;-82
2020/12/19 07:32:12;;;;;;;5.97;3.70;;;5.00;99.90;;;;;;4921986;29;20035;-84
2020/12/19 07:34:38;;;;;;;6.35;3.40;;;5.30;97.30;;;;;;4903016;29;20031;-79
2020/12/19 07:37:03;;;;;;;9.05;3.63;;;5.40;87.90;;;;;;4937447;29;20467;-80
2020/12/19 07:39:29;;;;;;;3.83;3.38;;;5.50;97.30;;;;;;4920541;29;20036;-80
2020/12/19 07:42:04;;;;;;;4.13;3.55;;;5.80;90.10;;;;;;4937800;29;20027;-81
2020/12/19 07:44:30;;;;;;;5.47;3.15;;;5.40;96.10;;;;;;4938137;29;20073;-82
2020/12/19 07:47:06;;;;;;;4.53;3.20;;;5.50;94.70;;;;;;4904694;29;20479;-81
2020/12/19 07:49:37;;;;;;;4.25;3.10;;;5.30;95.30;;;;;;4932299;29;20053;-82
2020/12/19 07:52:18;;;;;;;5.18;3.20;;;5.20;99.90;;;;;;4924144;29;20078;-80
2020/12/19 07:54:52;;;;;;;6.50;3.40;;;5.30;86.30;;;;;;4940204;29;20024;-80
2020/12/19 07:57:18;;;;;;;5.43;3.60;;;;;;;;;;4956473;28;20041;-81
2020/12/19 07:59:44;;;;;;;6.15;3.03;;;;;;;;;;4923232;29;20146;-79
2020/12/19 08:02:10;;;;;;;5.13;3.00;;;5.30;85.80;;;;;;4939234;29;20114;-80
2020/12/19 08:04:35;;;;;;;3.53;2.95;;;5.80;95.10;;;;;;4923399;29;20040;-79
2020/12/19 08:07:01;;;;;;;4.03;3.50;;;;;;;;;;4923168;29;20078;-80
2020/12/19 08:09:27;;;;;;;4.55;3.35;;;8.20;97.90;;;;;;4923452;29;20023;-78
2020/12/19 08:11:53;;;;;;;6.43;3.80;;;8.20;76.70;;;;;;4938413;29;20038;-79
2020/12/19 08:14:20;;;;;;;7.20;4.80;;;9.00;83.60;;;;;;4923154;29;20031;-79
2020/12/19 08:16:46;;;;;;;5.65;3.95;;;;;;;;;;4907023;29;20023;-80
2020/12/19 08:19:14;;;;;;;4.40;4.00;;;9.40;84.20;;;;;;4922672;29;20133;-82
2020/12/19 08:21:39;;;;;;;6.75;4.78;;;9.30;69.50;;;;;;4938675;29;20038;-79
2020/12/19 08:24:05;;;;;;;5.32;4.03;;;8.80;71.10;;;;;;4923049;29;20126;-85
2020/12/19 08:26:32;;;;;;;6.40;4.30;;;;;;;;;;4907238;29;20031;-82
2020/12/19 08:29:08;;;;;;;8.05;6.32;;;7.60;97.40;;;;;;4938706;29;20031;-83
2020/12/19 08:31:34;;;;;;;6.57;4.13;;;7.20;99.90;;;;;;4905130;29;20039;-80
2020/12/19 08:34:04;;;;;;;7.25;6.07;;;7.40;85.10;;;;;;4907550;29;20041;-81
2020/12/19 08:36:31;;;;;;;7.10;5.68;;;;;;;;;;4923386;29;20086;-86
2020/12/19 08:39:15;;;;;;;10.43;8.13;;;6.70;99.70;;;;;;4922714;29;20027;-81
2020/12/19 08:41:41;;;;;;;5.40;4.90;;;7.00;99.90;;;;;;4922493;29;20409;-77
2020/12/19 08:44:22;;;;;;;7.38;6.47;;;6.90;94.10;;;;;;4907031;29;20125;-84
2020/12/19 08:47:04;;;;;;;6.10;4.82;;;7.00;92.00;;;;;;4924052;29;20105;-84
2020/12/19 08:49:30;;;;;;;7.57;4.50;;;6.70;90.70;;;;;;4908699;29;20474;-78
2020/12/19 08:51:56;;;;;;;6.18;4.70;;;7.10;91.70;;;;;;4938019;29;20481;-79
2020/12/19 08:54:22;;;;;;;7.30;5.18;;;;;;;;;;4921950;29;20046;-77
2020/12/19 08:56:49;;;;;;;9.63;6.97;;;7.40;99.90;;;;;;4938242;29;20015;-77
2020/12/19 08:59:26;;;;;;;14.25;6.55;;;6.90;81.60;;;;;;4938038;29;20059;-78
2020/12/19 09:01:53;;;;;;;5.38;4.07;;;7.40;93.90;;;;;;4955426;29;20055;-78
2020/12/19 09:04:20;;;;;;;13.02;8.13;;;;;;;;;;4922377;29;20414;-78
2020/12/19 09:06:46;;;;;;;12.23;7.65;;;;;;;;;;4922341;29;20031;-76
2020/12/19 09:09:19;;;;;;;13.88;8.65;;;7.40;89.40;;;;;;4938485;29;20023;-80
2020/12/19 09:11:44;;;;;;;12.07;7.30;;;7.40;93.10;;;;;;4922589;29;20078;-79
2020/12/19 09:14:14;;;;;;;17.33;11.95;;;7.30;80.70;;;;;;4937563;29;20035;-78
2020/12/19 09:16:47;;;;;;;9.43;6.65;;;7.60;93.40;;;;;;4937980;29;20031;-79
2020/12/19 09:19:14;;;;;;;17.52;9.60;;;7.50;91.60;;;;;;4921606;29;20035;-78
2020/12/19 09:21:40;;;;;;;13.10;8.60;;;;;;;;;;4921608;29;20034;-77
2020/12/19 09:24:06;;;;;;;7.05;5.35;;;;;;;;;;4937641;29;20054;-79
2020/12/19 09:26:32;;;;;;;6.70;5.40;;;7.70;92.80;;;;;;4954947;29;20086;-80
2020/12/19 09:28:58;;;;;;;9.00;6.18;;;7.90;88.80;;;;;;4967130;28;20031;-78
2020/12/19 09:31:26;;;;;;;12.73;6.60;;;7.80;99.90;;;;;;4974320;28;20038;-80
2020/12/19 09:33:51;;;;;;;11.35;6.65;;;8.00;99.90;;;;;;4940637;28;20034;-78
2020/12/19 09:36:17;;;;;;;8.90;6.28;;;8.00;84.00;;;;;;4955762;28;20358;-77
2020/12/19 09:38:42;;;;;;;7.95;6.18;;;8.10;81.70;;;;;;4955557;28;20112;-78
2020/12/19 09:41:08;;;;;;;6.93;5.68;;;8.20;97.20;;;;;;4956184;28;20034;-77
2020/12/19 09:43:34;;;;;;;7.53;6.55;;;8.00;91.00;;;;;;4956374;28;20410;-78
2020/12/19 09:45:59;;;;;;;9.10;6.38;;;8.20;78.70;;;;;;4938753;28;20646;-78
2020/12/19 09:48:25;;;;;;;10.13;7.03;;;8.20;98.90;;;;;;4939026;28;20041;-78
2020/12/19 09:50:50;;;;;;;7.95;5.70;;;8.50;99.30;;;;;;4954883;28;20039;-79
2020/12/19 09:53:17;;;;;;;7.03;4.88;;;;;;;;;;4971956;28;20034;-79
2020/12/19 09:55:43;;;;;;;10.30;6.72;;;;;;;;;;4938864;28;20426;-79
2020/12/19 09:58:08;;;;;;;7.25;5.40;;;8.80;92.20;;;;;;4954857;28;20102;-81
2020/12/19 10:00:34;;;;;;;5.65;5.03;;;8.40;79.70;;;;;;4955922;28;20078;-77
2020/12/19 10:02:59;;;;;;;7.55;4.32;;;8.40;80.40;;;;;;4956219;28;20034;-78
2020/12/19 10:05:25;;;;;;;5.10;4.60;;;8.60;99.00;;;;;;4956829;28;20031;-80
2020/12/19 10:07:51;;;;;;;6.85;5.07;;;8.50;79.60;;;;;;4956305;28;20035;-80
2020/12/19 10:10:16;;;;;;;8.50;5.53;;;8.60;80.50;;;;;;4956441;28;20143;-78
2020/12/19 10:12:42;;;;;;;7.63;5.43;;;;;;;;;;4956494;28;20078;-78
2020/12/19 10:15:09;;;;;;;10.43;6.45;;;9.00;87.70;;;;;;4973525;28;20026;-82
2020/12/19 10:17:34;;;;;;;8.52;6.22;;;9.10;91.60;;;;;;4956442;28;20031;-78
2020/12/19 10:20:00;;;;;;;6.70;5.07;;;;;;;;;;4940444;28;20363;-80
2020/12/19 10:22:26;;;;;;;10.82;7.35;;;;;;;;;;4956488;28;20030;-84
2020/12/19 10:24:52;;;;;;;7.88;5.43;;;9.40;74.60;;;;;;4956231;28;20023;-80
2020/12/19 10:27:18;;;;;;;11.50;7.03;;;10.00;97.70;;;;;;4975823;28;20473;-81
2020/12/19 10:29:43;;;;;;;16.33;7.90;;;10.10;92.60;;;;;;4960357;28;20031;-78
2020/12/19 10:32:09;;;;;;;22.17;8.95;;;9.90;79.40;;;;;;4928003;28;20030;-84
2020/12/19 10:34:35;;;;;;;11.43;8.45;;;;;;;;;;4928362;28;20027;-87
2020/12/19 10:37:01;;;;;;;13.43;7.68;;;;;;;;;;4946792;28;20077;-82
2020/12/19 10:39:32;;;;;;;17.40;11.52;;;10.90;90.70;;;;;;4960353;28;20035;-85
2020/12/19 10:41:58;;;;;;;14.73;9.43;;;11.30;94.60;;;;;;4944712;28;20054;-80
2020/12/19 10:44:24;;;;;;;9.00;7.00;;;11.40;93.50;;;;;;4943788;28;20050;-80
2020/12/19 10:46:50;;;;;;;11.15;8.60;;;11.50;70.20;;;;;;4943696;28;20473;-86
2020/12/19 10:49:16;;;;;;;8.90;6.70;;;;;;;;;;4929292;28;20388;-82
2020/12/19 10:51:42;;;;;;;9.48;6.20;;;11.50;92.40;;;;;;4943733;28;20082;-81
2020/12/19 10:54:07;;;;;;;7.15;5.95;;;11.50;67.10;;;;;;4959840;28;20022;-79
2020/12/19 10:56:33;;;;;;;8.23;5.55;;;11.50;68.50;;;;;;4943580;28;20039;-85
2020/12/19 10:58:59;;;;;;;7.60;5.90;;;;;;;;;;4959305;28;20508;-86
2020/12/19 11:01:24;;;;;;;8.90;6.57;;;11.60;85.80;;;;;;4943510;28;20043;-85
2020/12/19 11:03:50;;;;;;;15.02;7.15;;;11.70;70.90;;;;;;4913937;29;20579;-81
2020/12/19 11:06:25;;;;;;;6.70;5.93;;;11.90;90.90;;;;;;4905435;29;20483;-84
2020/12/19 11:08:52;;;;;;;14.07;6.60;;;;;;;;;;4890204;29;20043;-83
2020/12/19 11:11:17;;;;;;;30.30;13.45;;;11.40;68.40;;;;;;4906024;29;20031;-87
2020/12/19 11:13:44;;;;;;;18.40;11.10;;;12.40;69.10;;;;;;4905695;29;20378;-82
2020/12/19 11:16:10;;;;;;;17.02;9.38;;;;;;;;;;4908072;29;20055;-84
2020/12/19 11:18:36;;;;;;;10.23;6.53;;;12.30;66.90;;;;;;4923939;29;20047;-85
2020/12/19 11:21:04;;;;;;;6.40;4.43;;;12.30;69.80;;;;;;4924201;29;20027;-83
2020/12/19 11:23:30;;;;;;;9.52;6.40;;;12.00;94.70;;;;;;4923937;29;20067;-84
2020/12/19 11:25:56;;;;;;;8.40;6.05;;;12.00;95.30;;;;;;4924722;29;20024;-82
2020/12/19 11:28:21;;;;;;;8.13;5.78;;;11.90;88.90;;;;;;4923907;29;20046;-84
2020/12/19 11:34:12;;;;;;;7.90;5.87;;;11.40;95.10;;;;;;4957435;29;20061;-81
2020/12/19 11:36:38;;;;;;;7.65;6.00;;;11.30;72.90;;;;;;4911950;28;20366;-85
2020/12/19 11:39:11;;;;;;;7.20;5.40;;;11.10;84.00;;;;;;4923706;29;20040;-82
2020/12/19 11:41:40;;;;;;;8.35;6.15;;;10.90;88.60;;;;;;4909659;29;20426;-83
2020/12/19 11:44:06;;;;;;;8.48;5.95;;;11.10;74.80;;;;;;4908433;29;20057;-78
2020/12/19 11:46:32;;;;;;;7.13;5.85;;;;;;;;;;4924026;29;20031;-79
2020/12/19 11:48:58;;;;;;;5.90;5.25;;;11.30;96.30;;;;;;4939350;29;20081;-77
2020/12/19 11:51:31;;;;;;;10.02;5.90;;;10.80;90.00;;;;;;4939190;29;20038;-78
2020/12/19 11:53:57;;;;;;;10.32;5.68;;;11.30;95.20;;;;;;4939342;29;20482;-75
2020/12/19 11:59:59;;;;;;;16.20;5.57;;;11.10;88.70;;;;;;4956439;28;20062;-77
2020/12/19 12:02:24;;;;;;;7.70;4.90;;;10.90;74.90;;;;;;4936334;28;20379;-77
2020/12/19 12:04:50;;;;;;;8.85;6.10;;;;;;;;;;4949277;29;20091;-77
2020/12/19 12:07:16;;;;;;;6.55;5.55;;;10.70;95.40;;;;;;4955709;29;20038;-80
2020/12/19 12:09:42;;;;;;;7.07;5.85;;;10.80;76.90;;;;;;4939085;29;20378;-78
2020/12/19 12:12:48;;;;;;;6.82;5.63;;;10.70;90.50;;;;;;4925284;28;20500;-76
2020/12/19 12:15:14;;;;;;;10.00;5.90;;;;;;;;;;4901644;29;20036;-77
2020/12/19 12:17:40;;;;;;;18.65;14.50;;;10.70;76.80;;;;;;4914896;29;20398;-79
2020/12/19 12:20:10;;;;;;;26.40;21.58;;;10.70;88.10;;;;;;4915424;29;20051;-80
2020/12/19 12:22:42;;;;;;;8.40;6.78;;;10.90;88.70;;;;;;4882598;29;20537;-78
2020/12/19 12:25:08;;;;;;;;;;;10.90;78.60;;;;;;4884566;29;20391;-81
2020/12/19 12:27:34;;;;;;;8.45;5.90;;;;;;;;;;4915485;29;19914;-77
2020/12/19 12:30:00;;;;;;;6.53;5.47;;;11.00;76.10;;;;;;4915334;29;20036;-78
2020/12/19 12:32:25;;;;;;;7.05;5.68;;;11.00;96.60;;;;;;4899582;29;20043;-79
2020/12/19 12:34:51;;;;;;;6.50;5.80;;;10.90;91.20;;;;;;4899177;29;20152;-79
2020/12/19 12:37:16;;;;;;;7.18;5.78;;;10.90;77.00;;;;;;4898812;29;20042;-78
2020/12/19 12:39:42;;;;;;;9.57;5.70;;;11.30;97.30;;;;;;4917950;29;20063;-78
2020/12/19 12:42:08;;;;;;;6.68;5.82;;;11.20;98.20;;;;;;4915061;29;20088;-77
2020/12/19 12:44:33;;;;;;;8.80;5.45;;;10.90;80.00;;;;;;4924134;29;20180;-79
2020/12/19 12:47:00;;;;;;;10.88;6.40;;;;;;;;;;4953772;28;20110;-78
2020/12/19 12:49:26;;;;;;;10.25;5.90;;;;;;;;;;4954591;28;20106;-80
2020/12/19 12:51:51;;;;;;;44.28;26.95;;;11.10;87.60;;;;;;4955468;29;20472;-78
2020/12/19 12:54:17;;;;;;;20.77;10.88;;;;;;;;;;4969245;28;20114;-79
2020/12/19 12:56:43;;;;;;;10.13;7.90;;;;;;;;;;4954607;29;20058;-78
2020/12/19 12:59:09;;;;;;;15.85;10.02;;;11.10;77.00;;;;;;4953903;28;20057;-78
2020/12/19 13:01:35;;;;;;;11.48;9.73;;;;;;;;;;4969274;28;20090;-78
2020/12/19 13:04:01;;;;;;;17.08;12.00;;;11.20;98.10;;;;;;4937489;29;20061;-78
2020/12/19 13:06:27;;;;;;;11.73;10.15;;;11.10;79.70;;;;;;4969476;28;20059;-77
2020/12/19 13:08:53;;;;;;;21.60;15.15;;;;;;;;;;4969984;28;20027;-78
2020/12/19 13:11:19;;;;;;;17.00;12.68;;;11.10;92.50;;;;;;4955172;29;20074;-79
2020/12/19 13:13:46;;;;;;;16.23;12.63;;;11.20;80.20;;;;;;4953834;29;20031;-77
2020/12/19 13:16:13;;;;;;;9.27;6.93;;;;;;;;;;4969664;28;20034;-78
2020/12/19 13:18:38;;;;;;;10.32;7.53;;;11.10;97.30;;;;;;4937943;29;20035;-78
2020/12/19 13:21:04;;;;;;;9.57;7.18;;;11.10;77.40;;;;;;4954651;29;20509;-78
2020/12/19 13:23:29;;;;;;;10.65;8.35;;;11.20;78.00;;;;;;4954871;29;20122;-77